Time;durP1;ratioP1;P1;durP2;ratioP2;P2;SDS_P1;SDS_P2;PMS_P1;PMS_P2;Temp;Humidity;BMP_temperature;BMP_pressure;BME280_temperature;BME280_humidity;BME280_pressure;Samples;Min_cycle;Max_cycle;Signal;HPM_P1;HPM_P2
2024/01/28 00:01:43;;;;;;;4.38;2.40;;;;;;;2.97;100.00;101515.06;5032520;28;20449;-71
2024/01/28 00:04:09;;;;;;;7.22;2.50;;;;;;;3.04;100.00;101541.22;5031952;28;20041;-71
2024/01/28 00:06:34;;;;;;;3.58;1.80;;;;;;;2.97;100.00;101541.47;5031018;28;20057;-70
2024/01/28 00:09:00;;;;;;;2.92;1.70;;;;;;;2.66;100.00;101523.53;5032255;28;20104;-70
2024/01/28 00:11:26;;;;;;;3.13;1.80;;;;;;;2.69;100.00;101544.22;5023080;28;20030;-70
2024/01/28 00:13:51;;;;;;;2.75;1.55;;;;;;;2.54;100.00;101517.38;5031803;28;20056;-67
2024/01/28 00:16:18;;;;;;;3.55;1.70;;;;;;;2.61;100.00;101550.31;5032716;28;20037;-68
2024/01/28 00:18:43;;;;;;;3.10;1.60;;;;;;;2.49;100.00;101549.22;5031396;28;20033;-69
2024/01/28 00:21:09;;;;;;;2.00;1.52;;;;;;;2.32;100.00;101533.38;5032205;28;20033;-69
2024/01/28 00:23:35;;;;;;;2.90;1.80;;;;;;;2.46;100.00;101554.97;5031804;28;20109;-69
2024/01/28 00:26:04;;;;;;;3.22;1.80;;;;;;;2.36;100.00;101553.25;5031619;28;20462;-69
2024/01/28 00:28:29;;;;;;;3.85;1.50;;;;;;;2.35;100.00;101554.03;5031282;28;20037;-68
2024/01/28 00:30:55;;;;;;;3.67;1.90;;;;;;;2.35;100.00;101548.91;5032479;28;20026;-69
2024/01/28 00:33:21;;;;;;;5.45;1.70;;;;;;;2.30;100.00;101537.44;5031278;28;20116;-69
2024/01/28 00:35:46;;;;;;;3.03;2.30;;;;;;;2.56;100.00;101575.38;5031789;28;20103;-69
2024/01/28 00:38:12;;;;;;;2.55;1.60;;;;;;;2.57;100.00;101563.56;5031501;28;20538;-68
2024/01/28 00:40:37;;;;;;;2.97;1.65;;;;;;;2.81;100.00;101574.09;5031585;28;20116;-68
2024/01/28 00:43:03;;;;;;;2.45;1.67;;;;;;;2.89;100.00;101558.66;5031845;28;20040;-72
2024/01/28 00:45:29;;;;;;;2.72;1.75;;;;;;;3.04;100.00;101573.47;5031292;28;20483;-70
2024/01/28 00:47:55;;;;;;;7.18;2.92;;;;;;;2.96;100.00;101554.97;5030499;28;20029;-68
2024/01/28 00:50:21;;;;;;;4.60;2.00;;;;;;;3.08;100.00;101575.53;5031592;28;20491;-70
2024/01/28 00:52:47;;;;;;;3.20;1.50;;;;;;;2.70;100.00;101540.88;5030982;28;20030;-68
2024/01/28 00:55:12;;;;;;;5.00;1.98;;;;;;;2.81;100.00;101569.84;5031462;28;20025;-66
2024/01/28 00:57:38;;;;;;;2.70;1.60;;;;;;;2.56;100.00;101521.84;5031472;28;20095;-68
2024/01/28 01:00:05;;;;;;;3.60;1.70;;;;;;;2.72;100.00;101553.78;5030875;28;20033;-69
2024/01/28 01:02:30;;;;;;;4.72;2.05;;;;;;;2.91;100.00;101589.41;5030529;28;20033;-68
2024/01/28 01:04:56;;;;;;;3.78;1.67;;;;;;;2.78;100.00;101569.63;5031175;28;20025;-69
2024/01/28 01:07:21;;;;;;;3.95;1.88;;;;;;;2.77;100.00;101569.47;5030565;28;20072;-68
2024/01/28 01:09:47;;;;;;;3.70;1.85;;;;;;;2.90;100.00;101593.63;5030740;28;20025;-69
2024/01/28 01:12:12;;;;;;;3.05;1.60;;;;;;;2.89;100.00;101586.72;5031486;28;20064;-70
2024/01/28 01:14:38;;;;;;;2.92;1.70;;;;;;;2.46;100.00;101506.53;5031097;28;20037;-69
2024/01/28 01:17:04;;;;;;;3.60;1.60;;;;;;;2.91;100.00;101592.84;5031201;28;20545;-68
2024/01/28 01:19:30;;;;;;;4.25;2.17;;;;;;;2.72;100.00;101556.34;5030987;28;20553;-67
2024/01/28 01:21:57;;;;;;;3.83;1.85;;;;;;;2.87;100.00;101587.34;5031552;28;20021;-69
2024/01/28 01:24:23;;;;;;;3.85;2.25;;;;;;;2.45;100.00;101508.97;5031415;28;20033;-66
2024/01/28 01:26:48;;;;;;;2.00;1.35;;;;;;;2.84;100.00;101575.25;5031225;28;20407;-68
2024/01/28 01:29:14;;;;;;;3.33;1.65;;;;;;;2.81;100.00;101577.50;5030719;28;20030;-69
2024/01/28 01:31:39;;;;;;;2.55;1.50;;;;;;;2.91;100.00;101586.84;5031641;28;20034;-66
2024/01/28 01:34:05;;;;;;;3.60;1.40;;;;;;;2.90;100.00;101585.06;5030882;28;20534;-69
2024/01/28 01:36:31;;;;;;;2.17;1.40;;;;;;;2.61;100.00;101545.19;5030838;28;20045;-69
2024/01/28 01:38:57;;;;;;;5.72;2.10;;;;;;;2.53;100.00;101520.69;5030649;28;20053;-67
2024/01/28 01:41:25;;;;;;;4.10;2.10;;;;;;;2.86;100.00;101577.91;5030431;28;20033;-68
2024/01/28 01:43:52;;;;;;;5.15;1.58;;;;;;;2.48;100.00;101555.09;5030654;28;20103;-69
2024/01/28 01:46:18;;;;;;;1.30;1.20;;;;;;;2.53;100.00;101579.31;5031374;28;20064;-66
2024/01/28 01:48:44;;;;;;;1.58;1.20;;;;;;;2.36;100.00;101586.41;5030526;28;20529;-69
2024/01/28 01:51:11;;;;;;;2.22;1.40;;;;;;;2.12;100.00;101580.03;5030852;28;20056;-68
2024/01/28 01:53:37;;;;;;;2.40;1.40;;;;;;;1.89;100.00;101557.59;5030602;28;20419;-68
2024/01/28 01:56:03;;;;;;;2.67;1.70;;;;;;;2.05;100.00;101577.69;5030467;28;20025;-66
2024/01/28 01:58:30;;;;;;;2.92;1.45;;;;;;;2.07;100.00;101577.06;5030360;28;20131;-69
2024/01/28 02:00:55;;;;;;;3.08;1.73;;;;;;;2.14;100.00;101591.25;5030176;28;20029;-72
2024/01/28 02:03:21;;;;;;;3.15;1.80;;;;;;;2.22;100.00;101591.94;5030217;28;20544;-74
2024/01/28 02:05:46;;;;;;;3.53;1.90;;;;;;;2.21;100.00;101593.59;5030441;28;20111;-71
2024/01/28 02:08:12;;;;;;;2.17;1.48;;;;;;;2.06;100.00;101607.50;5030193;28;20038;-67
2024/01/28 02:10:38;;;;;;;2.08;1.60;;;;;;;1.26;100.00;101527.38;5044508;28;20050;-73
2024/01/28 02:13:03;;;;;;;2.25;1.58;;;;;;;1.42;100.00;101612.00;5030243;28;20473;-68
2024/01/28 02:15:36;;;;;;;8.90;1.58;;;;;;;1.31;100.00;101615.19;5030788;28;20083;-69
2024/01/28 02:18:02;;;;;;;2.17;1.60;;;;;;;0.83;100.00;101546.31;5029958;28;20590;-66
2024/01/28 02:20:27;;;;;;;2.30;1.60;;;;;;;0.73;100.00;101527.63;5030314;28;20037;-68
2024/01/28 02:22:53;;;;;;;3.08;1.92;;;;;;;1.28;100.00;101625.06;5030101;28;20048;-67
2024/01/28 02:25:19;;;;;;;2.92;1.63;;;;;;;0.90;100.00;101543.59;5030356;28;20037;-71
2024/01/28 02:27:46;;;;;;;3.63;2.20;;;;;;;1.30;100.00;101618.50;5030027;28;20057;-71
2024/01/28 02:30:13;;;;;;;2.55;1.98;;;;;;;1.34;100.00;101620.56;5030696;28;20025;-73
2024/01/28 02:32:49;;;;;;;2.85;1.88;;;;;;;1.35;100.00;101624.91;5030100;28;20033;-71
2024/01/28 02:35:16;;;;;;;2.20;1.63;;;;;;;1.46;100.00;101625.91;5030401;28;20037;-67
2024/01/28 02:37:42;;;;;;;2.72;1.55;;;;;;;1.47;100.00;101627.69;5029920;28;20048;-66
2024/01/28 02:40:08;;;;;;;1.58;1.33;;;;;;;1.42;100.00;101613.63;5030149;28;20049;-71
2024/01/28 02:42:34;;;;;;;3.03;1.40;;;;;;;1.02;100.00;101549.78;5029801;28;20701;-68
2024/01/28 02:45:00;;;;;;;2.05;1.38;;;;;;;1.49;100.00;101636.34;5029540;28;20487;-69
2024/01/28 02:47:25;;;;;;;2.60;1.40;;;;;;;1.44;100.00;101622.31;5029779;28;20029;-67
2024/01/28 02:49:51;;;;;;;2.83;1.30;;;;;;;1.21;100.00;101608.34;5029610;28;20116;-70
2024/01/28 02:52:17;;;;;;;3.58;1.65;;;;;;;1.36;100.00;101653.75;5030355;28;20033;-67
2024/01/28 02:54:42;;;;;;;2.23;1.40;;;;;;;1.24;100.00;101638.28;5029937;28;20412;-68
2024/01/28 02:57:08;;;;;;;1.63;1.23;;;;;;;1.32;100.00;101644.06;5029545;28;20091;-68
2024/01/28 02:59:33;;;;;;;1.45;1.35;;;;;;;1.32;100.00;101651.69;5030302;28;20495;-68
2024/01/28 03:01:59;;;;;;;1.42;1.25;;;;;;;1.19;100.00;101644.59;5027211;28;20120;-67
2024/01/28 03:04:24;;;;;;;1.95;1.58;;;;;;;1.18;100.00;101650.41;5029656;28;20029;-69
2024/01/28 03:06:50;;;;;;;2.03;1.30;;;;;;;1.09;100.00;101636.06;5030113;28;20021;-71
2024/01/28 03:09:17;;;;;;;1.80;1.40;;;;;;;1.17;100.00;101636.78;5029250;28;20044;-65
2024/01/28 03:11:42;;;;;;;1.30;1.20;;;;;;;1.26;100.00;101642.75;5030755;28;20075;-67
2024/01/28 03:14:08;;;;;;;2.30;1.40;;;;;;;1.17;100.00;101638.44;5033666;28;20029;-70
2024/01/28 03:16:34;;;;;;;1.70;1.27;;;;;;;1.12;100.00;101636.38;5032864;28;20459;-66
2024/01/28 03:18:59;;;;;;;1.33;1.23;;;;;;;1.29;100.00;101653.19;5033147;28;20029;-70
2024/01/28 03:21:25;;;;;;;2.20;1.10;;;;;;;1.30;100.00;101659.19;5033353;28;20499;-67
2024/01/28 03:23:51;;;;;;;2.75;1.35;;;;;;;1.30;100.00;101646.47;5033451;28;20132;-71
2024/01/28 03:26:19;;;;;;;3.22;1.25;;;;;;;1.29;100.00;101648.09;5033002;28;20136;-66
2024/01/28 03:28:45;;;;;;;2.40;1.10;;;;;;;1.04;100.00;101621.16;5033059;28;20484;-67
2024/01/28 03:31:10;;;;;;;1.00;1.00;;;;;;;0.72;100.00;101563.09;5034223;28;20091;-66
2024/01/28 03:33:36;;;;;;;1.90;1.30;;;;;;;1.09;100.00;101648.78;5033191;28;20051;-67
2024/01/28 03:36:01;;;;;;;2.08;1.35;;;;;;;1.06;100.00;101657.78;5032955;28;20041;-67
2024/01/28 03:38:27;;;;;;;1.95;1.42;;;;;;;0.63;100.00;101578.38;5033042;28;20049;-68
2024/01/28 03:40:52;;;;;;;1.53;1.10;;;;;;;1.05;100.00;101654.34;5032896;28;20112;-66
2024/01/28 03:43:18;;;;;;;1.23;1.13;;;;;;;1.06;100.00;101656.16;5033832;28;20033;-66
2024/01/28 03:45:43;;;;;;;3.57;1.30;;;;;;;1.06;100.00;101663.78;5033150;28;20029;-67
2024/01/28 03:48:09;;;;;;;3.07;1.70;;;;;;;0.96;100.00;101664.56;5032870;28;20044;-71
2024/01/28 03:50:34;;;;;;;3.47;2.30;;;;;;;0.64;100.00;101603.03;5033430;28;20030;-67
2024/01/28 03:53:00;;;;;;;3.67;1.87;;;;;;;1.01;100.00;101662.44;5032764;28;20488;-66
2024/01/28 03:55:25;;;;;;;3.00;1.60;;;;;;;0.99;100.00;101661.41;5046879;28;20049;-66
2024/01/28 03:57:51;;;;;;;2.93;2.13;;;;;;;1.01;100.00;101662.44;5032829;28;20036;-66
2024/01/28 04:00:18;;;;;;;2.27;1.77;;;;;;;0.89;100.00;101656.19;5031668;28;20021;-66
2024/01/28 04:02:44;;;;;;;4.23;1.80;;;;;;;0.94;100.00;101673.66;5032612;28;20036;-69
2024/01/28 04:05:10;;;;;;;2.77;1.90;;;;;;;0.81;100.00;101658.03;5032523;28;20116;-67
2024/01/28 04:07:36;;;;;;;2.90;1.80;;;;;;;0.95;100.00;101679.66;5032473;28;20726;-67
2024/01/28 04:10:01;;;;;;;3.70;1.87;;;;;;;1.02;100.00;101683.69;5032571;28;20026;-68
2024/01/28 04:12:27;;;;;;;2.20;1.45;;;;;;;0.89;100.00;101661.28;5031731;28;20036;-69
2024/01/28 04:14:52;;;;;;;3.97;1.60;;;;;;;1.08;100.00;101687.69;5032413;28;20040;-68
2024/01/28 04:17:18;;;;;;;5.70;2.57;;;;;;;1.09;100.00;101686.06;5032376;28;20033;-67
2024/01/28 04:19:43;;;;;;;4.13;2.00;;;;;;;1.06;100.00;101678.13;5032263;28;20491;-70
2024/01/28 04:22:12;;;;;;;2.77;1.57;;;;;;;0.88;100.00;101644.25;5032744;28;20076;-70
2024/01/28 04:24:37;;;;;;;1.70;1.35;;;;;;;0.51;100.00;101587.34;5031183;28;20069;-69
2024/01/28 04:27:03;;;;;;;2.95;1.60;;;;;;;1.13;100.00;101689.03;5032105;28;20065;-67
2024/01/28 04:29:29;;;;;;;3.67;1.50;;;;;;;1.05;100.00;101682.31;5031988;28;20565;-68
2024/01/28 04:31:55;;;;;;;5.67;1.80;;;;;;;1.06;100.00;101694.28;5019109;28;20022;-68
2024/01/28 04:34:21;;;;;;;2.47;1.90;;;;;;;0.58;100.00;101607.53;5024310;28;20041;-68
2024/01/28 04:36:47;;;;;;;2.20;1.50;;;;;;;1.03;100.00;101681.28;5034778;28;20041;-68
2024/01/28 04:39:15;;;;;;;1.57;1.20;;;;;;;1.13;100.00;101701.75;5029267;28;20046;-68
2024/01/28 04:41:41;;;;;;;2.37;1.50;;;;;;;0.78;100.00;101620.47;5032666;28;20047;-68
2024/01/28 04:44:07;;;;;;;4.10;1.40;;;;;;;1.21;100.00;101709.19;5033247;28;20036;-69
2024/01/28 04:46:33;;;;;;;2.33;1.40;;;;;;;1.27;100.00;101725.97;5032758;28;20606;-68
2024/01/28 04:49:03;;;;;;;2.40;1.40;;;;;;;1.30;100.00;101727.88;5032004;28;20033;-67
2024/01/28 04:51:30;;;;;;;2.10;1.15;;;;;;;1.36;100.00;101715.75;5031725;28;20107;-67
2024/01/28 04:53:57;;;;;;;3.33;1.30;;;;;;;1.44;100.00;101722.44;5032254;28;20061;-67
2024/01/28 04:56:23;;;;;;;3.70;1.80;;;;;;;1.33;100.00;101714.56;5030670;28;20389;-67
2024/01/28 04:58:49;;;;;;;2.03;1.30;;;;;;;1.41;100.00;101729.78;5031682;28;20017;-68
2024/01/28 05:01:15;;;;;;;4.45;1.98;;;;;;;1.33;100.00;101720.53;5031736;28;20041;-69
2024/01/28 05:03:40;;;;;;;3.15;1.77;;;;;;;1.41;100.00;101729.78;5031677;28;20053;-68
2024/01/28 05:06:06;;;;;;;2.58;1.58;;;;;;;1.35;100.00;101728.34;5031074;28;20033;-68
2024/01/28 05:08:33;;;;;;;4.80;2.00;;;;;;;1.32;100.00;101735.66;5031473;28;20040;-69
2024/01/28 05:10:58;;;;;;;2.78;1.73;;;;;;;1.34;100.00;101742.69;5032183;28;20036;-66
2024/01/28 05:13:24;;;;;;;2.43;1.50;;;;;;;1.33;100.00;101743.44;5031230;28;20488;-69
2024/01/28 05:15:49;;;;;;;4.32;1.42;;;;;;;1.32;100.00;101740.75;5031244;28;20038;-71
2024/01/28 05:18:16;;;;;;;2.92;1.60;;;;;;;1.45;100.00;101736.06;5030993;28;20072;-68
2024/01/28 05:20:42;;;;;;;3.25;1.70;;;;;;;1.52;100.00;101747.72;5030846;28;20518;-69
2024/01/28 05:23:08;;;;;;;3.33;1.80;;;;;;;1.10;100.00;101659.88;5031255;28;20034;-67
2024/01/28 05:25:33;;;;;;;3.08;1.60;;;;;;;1.56;100.00;101749.81;5022718;28;20033;-68
2024/01/28 05:27:59;;;;;;;4.18;2.00;;;;;;;1.54;100.00;101756.41;5031962;28;20052;-69
2024/01/28 05:30:24;;;;;;;6.32;2.63;;;;;;;1.54;100.00;101746.22;5031142;28;20034;-68
2024/01/28 05:32:50;;;;;;;4.15;2.65;;;;;;;1.38;100.00;101736.25;5031095;28;20025;-67
2024/01/28 05:35:16;;;;;;;5.65;2.75;;;;;;;1.28;100.00;101730.28;5030665;28;20447;-68
2024/01/28 05:37:41;;;;;;;8.88;3.40;;;;;;;1.57;100.00;101767.75;5031394;28;20404;-67
2024/01/28 05:40:10;;;;;;;5.40;2.35;;;;;;;1.40;100.00;101740.72;5028515;28;20077;-66
2024/01/28 05:42:36;;;;;;;4.72;2.03;;;;;;;1.57;100.00;101777.03;5029873;28;20041;-68
2024/01/28 05:45:05;;;;;;;5.10;2.10;;;;;;;1.29;100.00;101723.53;5030409;28;20029;-68
2024/01/28 05:47:31;;;;;;;4.32;2.35;;;;;;;1.55;100.00;101770.91;5030440;28;20515;-68
2024/01/28 05:49:56;;;;;;;6.13;2.30;;;;;;;1.44;100.00;101782.63;5030814;28;20025;-68
2024/01/28 05:52:22;;;;;;;5.22;1.90;;;;;;;1.42;100.00;101786.66;5030518;28;20044;-68
2024/01/28 05:54:47;;;;;;;2.83;1.70;;;;;;;1.48;100.00;101799.09;5030262;28;20469;-69
2024/01/28 05:57:13;;;;;;;2.15;1.55;;;;;;;1.46;100.00;101801.50;5030839;28;20030;-68
2024/01/28 05:59:39;;;;;;;1.88;1.60;;;;;;;1.48;100.00;101797.41;5030270;28;20040;-67
2024/01/28 06:02:04;;;;;;;3.83;1.52;;;;;;;1.34;100.00;101782.50;5030571;28;20064;-68
2024/01/28 06:04:30;;;;;;;3.25;1.67;;;;;;;1.46;100.00;101804.03;5030305;28;20168;-67
2024/01/28 06:06:55;;;;;;;3.03;1.70;;;;;;;1.39;100.00;101788.94;5030520;28;20033;-70
2024/01/28 06:09:21;;;;;;;4.07;2.10;;;;;;;1.41;100.00;101784.88;5030360;28;20887;-67
2024/01/28 06:11:47;;;;;;;3.80;2.00;;;;;;;1.56;100.00;101796.50;5030061;28;20124;-67
2024/01/28 06:14:12;;;;;;;3.30;1.67;;;;;;;1.67;100.00;101810.25;5012202;28;20124;-68
2024/01/28 06:16:38;;;;;;;5.00;1.92;;;;;;;1.65;100.00;101806.66;5030869;28;20041;-69
2024/01/28 06:19:04;;;;;;;4.65;2.03;;;;;;;1.72;100.00;101814.13;5030022;28;20542;-69
2024/01/28 06:21:29;;;;;;;2.65;1.63;;;;;;;1.87;100.00;101829.03;5029984;28;20042;-70
2024/01/28 06:23:55;;;;;;;4.10;1.70;;;;;;;1.78;100.00;101799.44;5030964;28;20053;-66
2024/01/28 06:26:21;;;;;;;2.63;1.67;;;;;;;1.52;100.00;101753.72;5030091;28;20415;-68
2024/01/28 06:28:47;;;;;;;3.83;1.63;;;;;;;2.01;100.00;101830.34;5029847;28;20480;-73
2024/01/28 06:31:13;;;;;;;3.03;1.92;;;;;;;2.02;100.00;101834.66;5030530;28;20045;-67
2024/01/28 06:33:40;;;;;;;2.58;1.60;;;;;;;1.88;100.00;101811.38;5029274;28;20045;-68
2024/01/28 06:36:06;;;;;;;2.60;1.70;;;;;;;2.09;100.00;101840.50;5029706;28;20491;-69
2024/01/28 06:38:31;;;;;;;3.00;1.80;;;;;;;2.02;100.00;101842.31;5028010;28;20049;-71
2024/01/28 06:40:57;;;;;;;3.65;2.28;;;;;;;2.14;100.00;101847.66;5029460;28;20063;-69
2024/01/28 06:43:26;;;;;;;2.88;1.90;;;;;;;2.20;100.00;101853.34;5029510;28;20037;-71
2024/01/28 06:45:52;;;;;;;5.23;2.03;;;;;;;2.21;100.00;101852.59;5030033;28;20022;-70
2024/01/28 06:48:19;;;;;;;2.45;1.70;;;;;;;2.17;100.00;101841.22;5028261;28;20268;-69
2024/01/28 06:50:46;;;;;;;4.40;1.95;;;;;;;2.27;100.00;101840.41;5028952;28;20499;-67
2024/01/28 06:53:12;;;;;;;4.45;2.95;;;;;;;2.30;100.00;101845.78;5029695;28;20102;-69
2024/01/28 06:55:37;;;;;;;16.23;9.13;;;;;;;2.42;100.00;101844.34;5043357;28;20037;-68
2024/01/28 06:58:03;;;;;;;13.30;7.68;;;;;;;2.51;100.00;101838.31;5029092;28;20415;-70
2024/01/28 07:00:29;;;;;;;6.78;3.13;;;;;;;2.28;100.00;101787.78;5030009;28;20022;-69
2024/01/28 07:02:54;;;;;;;4.25;2.42;;;;;;;2.52;100.00;101845.22;5028631;28;20033;-66
2024/01/28 07:05:20;;;;;;;5.85;3.45;;;;;;;2.57;100.00;101836.34;5030108;28;20117;-70
2024/01/28 07:07:46;;;;;;;16.25;4.03;;;;;;;2.54;100.00;101819.09;5028858;28;20404;-70
2024/01/28 07:10:12;;;;;;;7.78;3.33;;;;;;;2.69;100.00;101834.91;5029308;28;20036;-67
2024/01/28 07:12:39;;;;;;;7.93;3.65;;;;;;;2.72;100.00;101834.28;5029335;28;20108;-69
2024/01/28 07:15:05;;;;;;;8.63;3.65;;;;;;;2.83;100.00;101841.25;5029307;28;20491;-68
2024/01/28 07:17:31;;;;;;;9.85;3.63;;;;;;;2.86;100.00;101835.53;5028662;28;20142;-68
2024/01/28 07:19:56;;;;;;;5.60;3.70;;;;;;;3.00;100.00;101840.19;5021727;28;20065;-68
2024/01/28 07:22:22;;;;;;;19.10;11.23;;;;;;;3.08;100.00;101840.91;5026800;28;20033;-68
2024/01/28 07:24:48;;;;;;;10.13;5.57;;;;;;;3.17;100.00;101851.03;5025174;28;20155;-69
2024/01/28 07:27:14;;;;;;;5.55;2.90;;;;;;;3.14;100.00;101851.66;5024686;28;20029;-69
2024/01/28 07:29:40;;;;;;;5.72;3.10;;;;;;;2.97;100.00;101837.38;5028769;28;20061;-68
2024/01/28 07:32:06;;;;;;;4.63;2.58;;;;;;;2.89;100.00;101852.00;5029076;28;20406;-68
2024/01/28 07:34:31;;;;;;;4.60;2.55;;;;;;;2.88;100.00;101864.63;5029171;28;20037;-67
2024/01/28 07:36:58;;;;;;;7.47;2.70;;;;;;;2.88;100.00;101862.97;5029240;28;20098;-69
2024/01/28 07:39:25;;;;;;;3.35;2.40;;;;;;;2.43;100.00;101784.97;5044578;28;20080;-69
2024/01/28 07:41:51;;;;;;;8.57;2.92;;;;;;;3.03;100.00;101872.75;5029334;28;20164;-68
2024/01/28 07:44:17;;;;;;;6.07;4.13;;;;;;;3.08;100.00;101874.06;5028747;28;20077;-72
2024/01/28 07:46:43;;;;;;;4.82;2.67;;;;;;;3.06;100.00;101873.03;5029641;28;20095;-67
2024/01/28 07:49:09;;;;;;;4.60;2.70;;;;;;;3.03;100.00;101870.22;5029020;28;20045;-68
2024/01/28 07:51:34;;;;;;;5.55;2.97;;;;;;;3.04;100.00;101874.53;5029034;28;20092;-68
2024/01/28 07:54:00;;;;;;;5.80;3.20;;;;;;;3.09;100.00;101878.41;5028467;28;20029;-68
2024/01/28 07:56:26;;;;;;;9.02;4.82;;;;;;;2.61;100.00;101794.16;5026590;28;20125;-68
2024/01/28 07:58:51;;;;;;;6.03;3.13;;;;;;;3.10;100.00;101886.94;5030153;28;20025;-69
2024/01/28 08:01:17;;;;;;;5.57;3.45;;;;;;;2.62;100.00;101801.94;5029846;28;20094;-69
2024/01/28 08:03:43;;;;;;;12.18;8.02;;;;;;;3.13;100.00;101883.03;5030095;28;20149;-67
2024/01/28 08:06:09;;;;;;;14.85;11.45;;;;;;;3.06;100.00;101888.34;5030514;28;20534;-68
2024/01/28 08:08:34;;;;;;;7.22;5.03;;;;;;;3.04;100.00;101888.19;5029884;28;20104;-69
2024/01/28 08:11:00;;;;;;;8.98;6.07;;;;;;;3.02;100.00;101899.03;5029865;28;20416;-67
2024/01/28 08:13:26;;;;;;;9.27;5.03;;;;;;;2.73;100.00;101839.50;5029981;28;20040;-68
2024/01/28 08:16:01;;;;;;;8.77;4.72;;;;;;;2.93;100.00;101894.00;5030538;28;20156;-70
2024/01/28 08:18:26;;;;;;;7.38;4.30;;;;;;;2.90;100.00;101899.72;5029740;28;20048;-68
2024/01/28 08:20:53;;;;;;;9.40;4.28;;;;;;;2.92;100.00;101910.06;5029897;28;20057;-69
2024/01/28 08:23:18;;;;;;;8.82;5.35;;;;;;;2.99;100.00;101902.19;5029001;28;20527;-68
2024/01/28 08:25:46;;;;;;;20.88;9.55;;;;;;;2.92;100.00;101902.41;5029630;28;20114;-68
2024/01/28 08:28:11;;;;;;;17.35;7.30;;;;;;;2.98;100.00;101905.50;5029420;28;20067;-66
2024/01/28 08:30:37;;;;;;;11.15;6.38;;;;;;;3.07;100.00;101903.78;5046023;28;20084;-68
2024/01/28 08:33:03;;;;;;;16.30;7.43;;;;;;;2.64;100.00;101810.66;5031881;28;20052;-68
2024/01/28 08:35:29;;;;;;;11.75;5.80;;;;;;;3.26;100.00;101914.75;5032171;28;20030;-69
2024/01/28 08:37:54;;;;;;;5.70;4.03;;;;;;;3.30;100.00;101910.06;5032011;28;20056;-68
2024/01/28 08:40:20;;;;;;;7.35;4.00;;;;;;;3.31;100.00;101921.16;5031859;28;20468;-68
2024/01/28 08:42:46;;;;;;;8.90;4.70;;;;;;;3.30;100.00;101904.03;5032760;28;20029;-68
2024/01/28 08:45:11;;;;;;;9.20;3.67;;;;;;;3.40;100.00;101912.69;5032675;28;20479;-68
2024/01/28 08:47:36;;;;;;;6.03;3.30;;;;;;;3.11;100.00;101870.88;5031702;28;20029;-68
2024/01/28 08:50:03;;;;;;;7.40;4.47;;;;;;;3.36;100.00;101904.59;5031660;28;20029;-67
2024/01/28 08:52:28;;;;;;;13.50;8.32;;;;;;;3.56;100.00;101920.03;5031683;28;20029;-68
2024/01/28 08:54:54;;;;;;;9.00;4.30;;;;;;;3.62;100.00;101918.78;5032271;28;20495;-68
2024/01/28 08:57:20;;;;;;;9.43;4.82;;;;;;;3.67;100.00;101926.06;5031722;28;20040;-69
2024/01/28 08:59:46;;;;;;;8.60;4.22;;;;;;;3.63;100.00;101895.94;5031418;28;20037;-68
2024/01/28 09:02:11;;;;;;;8.90;5.63;;;;;;;3.88;100.00;101918.53;5031407;28;20046;-69
2024/01/28 09:04:38;;;;;;;10.77;6.05;;;;;;;3.94;100.00;101913.94;5031599;28;20080;-68
2024/01/28 09:07:03;;;;;;;7.68;4.50;;;;;;;4.07;100.00;101923.56;5030226;28;20492;-68
2024/01/28 09:09:29;;;;;;;11.00;6.35;;;;;;;4.14;100.00;101914.78;5031763;28;20032;-68
2024/01/28 09:11:54;;;;;;;9.30;5.95;;;;;;;4.25;100.00;101921.72;5031156;28;20057;-68
2024/01/28 09:14:20;;;;;;;7.88;4.32;;;;;;;4.41;100.00;101933.22;5031577;28;20048;-68
2024/01/28 09:16:45;;;;;;;7.38;4.60;;;;;;;4.37;100.00;101920.22;5029050;28;20555;-69
2024/01/28 09:19:11;;;;;;;9.18;4.78;;;;;;;4.43;100.00;101921.50;5028621;28;20042;-68
2024/01/28 09:21:37;;;;;;;7.82;4.82;;;;;;;4.35;100.00;101934.50;5028927;28;20046;-68
2024/01/28 09:24:03;;;;;;;8.55;4.25;;;;;;;4.28;100.00;101929.63;5028964;28;20690;-68
2024/01/28 09:26:29;;;;;;;7.53;4.47;;;;;;;4.30;100.00;101922.09;5028455;28;20037;-72
2024/01/28 09:28:55;;;;;;;11.23;5.47;;;;;;;4.34;100.00;101925.03;5028431;28;20045;-66
2024/01/28 09:31:20;;;;;;;8.15;4.30;;;;;;;4.47;100.00;101926.97;5012218;28;20052;-68
2024/01/28 09:33:46;;;;;;;6.40;4.13;;;;;;;4.58;100.00;101925.31;5029036;28;20113;-68
2024/01/28 09:36:11;;;;;;;6.45;3.80;;;;;;;4.74;100.00;101929.19;5028219;28;20034;-68
2024/01/28 09:38:39;;;;;;;7.05;4.05;;;;;;;4.79;100.00;101921.13;5028020;28;20081;-72
2024/01/28 09:41:16;;;;;;;9.77;5.30;;;;;;;4.89;100.00;101938.16;5028963;28;20077;-70
2024/01/28 09:43:43;;;;;;;12.73;4.90;;;;;;;4.60;100.00;101872.66;5028633;28;20132;-66
2024/01/28 09:46:09;;;;;;;8.07;5.07;;;;;;;4.95;100.00;101928.41;5011730;28;20054;-68
2024/01/28 09:48:35;;;;;;;11.00;5.57;;;;;;;4.50;100.00;101852.19;5028059;28;20374;-69
2024/01/28 09:51:01;;;;;;;11.00;4.40;;;;;;;4.98;100.00;101932.91;5028151;28;20042;-69
2024/01/28 09:53:27;;;;;;;9.50;4.18;;;;;;;4.96;100.00;101913.94;5028486;28;20142;-68
2024/01/28 09:55:53;;;;;;;7.20;3.40;;;;;;;5.02;100.00;101915.38;5030232;28;20041;-69
2024/01/28 09:58:19;;;;;;;6.93;3.58;;;;;;;4.79;100.00;101882.75;5030388;28;20442;-68
2024/01/28 10:00:45;;;;;;;7.72;3.35;;;;;;;5.12;100.00;101929.81;5030458;28;20531;-67
2024/01/28 10:03:12;;;;;;;7.03;3.75;;;;;;;5.07;100.00;101917.41;5029599;28;20397;-68
2024/01/28 10:05:38;;;;;;;5.00;2.38;;;;;;;5.10;100.00;101931.34;5030517;28;20128;-68
2024/01/28 10:08:04;;;;;;;3.47;2.28;;;;;;;4.79;100.00;101864.84;5030247;28;20034;-68
2024/01/28 10:10:34;;;;;;;9.82;5.20;;;;;;;5.13;100.00;101920.47;5030753;28;20040;-68
2024/01/28 10:13:00;;;;;;;3.83;2.42;;;;;;;4.96;100.00;101909.75;5030374;28;20472;-68
2024/01/28 10:15:27;;;;;;;15.95;9.50;;;;;;;4.95;100.00;101910.50;5030029;28;20038;-69
2024/01/28 10:17:53;;;;;;;12.00;4.95;;;;;;;5.04;100.00;101914.59;5030026;28;20108;-69
2024/01/28 10:20:23;;;;;;;4.45;2.72;;;;;;;5.10;100.00;101897.19;5030067;28;20111;-67
2024/01/28 10:22:51;;;;;;;5.32;2.90;;;;;;;5.21;100.00;101900.63;5029825;28;20542;-68
2024/01/28 10:25:17;;;;;;;5.00;3.50;;;;;;;5.23;100.00;101892.28;5030189;28;20029;-68
2024/01/28 10:27:44;;;;;;;9.23;3.78;;;;;;;5.40;100.00;101910.72;5029906;28;20045;-68
2024/01/28 10:30:11;;;;;;;5.15;3.05;;;;;;;5.49;100.00;101908.88;5029829;28;20040;-71
2024/01/28 10:32:38;;;;;;;4.85;2.88;;;;;;;5.22;100.00;101851.19;5030138;28;20065;-69
2024/01/28 10:35:08;;;;;;;10.38;5.15;;;;;;;5.72;100.00;101909.81;5027636;28;20042;-67
2024/01/28 10:37:34;;;;;;;7.97;4.03;;;;;;;5.75;100.00;101899.84;5035665;28;20045;-73
2024/01/28 10:40:08;;;;;;;12.13;6.07;;;;;;;5.95;100.00;101907.41;5030528;28;20060;-66
2024/01/28 10:42:38;;;;;;;11.00;6.38;;;;;;;6.07;100.00;101909.19;5029847;28;20061;-68
2024/01/28 10:45:09;;;;;;;14.93;8.77;;;;;;;6.11;100.00;101901.84;5029812;28;20107;-69
2024/01/28 10:47:36;;;;;;;4.10;2.17;;;;;;;6.14;100.00;101911.44;5029773;28;20030;-67
2024/01/28 10:50:06;;;;;;;5.57;2.20;;;;;;;6.18;100.00;101903.25;5025264;28;20029;-68
2024/01/28 10:52:32;;;;;;;3.50;1.90;;;;;;;6.11;100.00;101894.16;5029722;28;20021;-68
2024/01/28 10:55:00;;;;;;;5.07;2.13;;;;;;;6.14;100.00;101873.00;5030334;28;20033;-66
2024/01/28 10:57:27;;;;;;;4.32;2.42;;;;;;;6.60;100.00;101899.63;5029536;28;20033;-68
2024/01/28 10:59:53;;;;;;;5.15;2.00;;;;;;;6.84;98.48;101902.25;5029619;28;20028;-68
2024/01/28 11:02:20;;;;;;;3.72;2.08;;;;;;;7.02;98.20;101891.56;5043802;28;20575;-67
2024/01/28 11:04:46;;;;;;;4.78;2.17;;;;;;;6.72;100.00;101822.66;5029357;28;20025;-69
2024/01/28 11:07:12;;;;;;;6.03;2.45;;;;;;;7.23;99.97;101899.97;5029581;28;20021;-69
2024/01/28 11:09:38;;;;;;;6.25;3.20;;;;;;;7.10;100.00;101893.00;5029647;28;20044;-68
2024/01/28 11:12:05;;;;;;;6.50;2.72;;;;;;;7.26;100.00;101890.81;5029982;28;20021;-68
2024/01/28 11:14:30;;;;;;;4.65;2.78;;;;;;;7.01;100.00;101894.91;5029161;28;20529;-68
2024/01/28 11:16:56;;;;;;;32.75;16.45;;;;;;;6.28;100.00;101808.28;5029487;28;20175;-67
2024/01/28 11:19:30;;;;;;;9.30;4.13;;;;;;;6.50;100.00;101891.97;5029922;28;20090;-67